Terminal Aerodrome Forecast
Issued by NWS Spokane, WA

Home | Current Version | Previous Version | Text Only | Print | Product List | Glossary On
Versions: 1 2 3 4 5 6 7 8 9 10 11 12 13 14 15 16 17 18 19 20 21 22 23 24 25 26 27 28 29 30 31
000
FTUS46 KOTX 290521
TAFGEG
TAF
KGEG 290521Z 2906/3006 10006KT P6SM -SHRA BKN070 BKN150
     FM290800 21007KT P6SM VCSH SCT060 BKN090 BKN150
     FM291500 13005KT P6SM FEW080 SCT120
     FM292200 21007KT P6SM VCTS SCT060CB BKN090 BKN150=

USA.gov is the U.S. government's official web portal to all federal, state and local government web resources and services.